createdAt,value
2023-12-18T00:02:07.186Z,7.13
2023-12-18T00:04:37.505Z,6.59
2023-12-18T00:07:10.369Z,6.53
2023-12-18T00:09:41.730Z,6.22
2023-12-18T00:12:12.216Z,6.22
2023-12-18T00:14:42.511Z,6.23
2023-12-18T00:17:12.799Z,5.95
2023-12-18T00:19:43.286Z,5.67
2023-12-18T00:22:16.400Z,5.43
2023-12-18T00:24:46.551Z,5.40
2023-12-18T00:27:16.717Z,5.27
2023-12-18T00:29:46.906Z,5.32
2023-12-18T00:32:17.029Z,5.57
2023-12-18T00:34:47.353Z,5.41
2023-12-18T00:37:20.220Z,5.36
2023-12-18T00:39:50.487Z,5.32
2023-12-18T00:42:20.630Z,5.37
2023-12-18T00:44:50.805Z,5.28
2023-12-18T00:47:23.795Z,5.34
2023-12-18T00:49:54.186Z,5.36
2023-12-18T00:52:27.045Z,5.68
2023-12-18T00:54:57.298Z,5.95
2023-12-18T00:57:27.463Z,5.89
2023-12-18T00:59:57.629Z,5.75
2023-12-18T01:02:27.830Z,6.32
2023-12-18T01:04:58.378Z,6.11
2023-12-18T01:07:31.827Z,5.91
2023-12-18T01:10:02.435Z,5.70
2023-12-18T01:12:32.804Z,5.59
2023-12-18T01:15:03.041Z,5.46
2023-12-18T01:17:36.672Z,5.03
2023-12-18T01:20:07.622Z,4.91
2023-12-18T01:25:11.757Z,4.93
2023-12-18T01:27:42.132Z,4.98
2023-12-18T01:30:14.060Z,4.96
2023-12-18T01:32:44.423Z,4.89
2023-12-18T01:35:14.664Z,5.09
2023-12-18T01:37:47.575Z,6.07
2023-12-18T01:40:17.887Z,6.90
2023-12-18T01:42:48.425Z,7.46
2023-12-18T01:45:18.911Z,7.89
2023-12-18T01:47:49.323Z,8.19
2023-12-18T01:50:19.782Z,8.38
2023-12-18T01:52:53.182Z,8.34
2023-12-18T01:55:23.465Z,8.57
2023-12-18T01:57:53.688Z,8.51
2023-12-18T02:00:24.036Z,8.67
2023-12-18T02:02:54.453Z,8.85
2023-12-18T02:05:24.722Z,8.81
2023-12-18T02:07:58.821Z,8.83
2023-12-18T02:10:29.765Z,9.03
2023-12-18T02:13:00.185Z,8.96
2023-12-18T02:15:30.471Z,8.47
2023-12-18T02:18:00.774Z,8.02
2023-12-18T02:20:31.153Z,7.56
2023-12-18T02:23:04.035Z,6.93
2023-12-18T02:25:34.445Z,6.76
2023-12-18T02:28:05.404Z,6.51
2023-12-18T02:30:36.338Z,6.29
2023-12-18T02:33:07.569Z,6.34
2023-12-18T02:35:37.973Z,6.19
2023-12-18T02:38:11.893Z,6.02
2023-12-18T02:40:44.063Z,6.60
2023-12-18T02:43:14.286Z,6.60
2023-12-18T02:45:44.505Z,6.46
2023-12-18T02:48:14.981Z,6.31
2023-12-18T02:50:45.225Z,6.22
2023-12-18T02:53:19.325Z,6.41
2023-12-18T02:55:49.889Z,6.44
2023-12-18T02:58:22.950Z,6.64
2023-12-18T03:00:53.319Z,6.48
2023-12-18T03:03:23.770Z,6.04
2023-12-18T03:05:54.342Z,5.91
2023-12-18T03:08:27.169Z,5.81
2023-12-18T03:10:57.483Z,5.67
2023-12-18T03:13:27.880Z,5.75
2023-12-18T03:16:00.736Z,5.92
2023-12-18T03:18:31.401Z,5.99
2023-12-18T03:21:01.804Z,5.93
2023-12-18T03:23:34.904Z,5.80
2023-12-18T03:26:05.130Z,5.67
2023-12-18T03:28:35.300Z,5.58
2023-12-18T03:31:05.682Z,5.57
2023-12-18T03:33:36.130Z,5.67
2023-12-18T03:36:07.595Z,5.83
2023-12-18T03:38:40.555Z,5.64
2023-12-18T03:41:10.820Z,5.59
2023-12-18T03:43:41.012Z,5.73
2023-12-18T03:46:11.292Z,5.76
2023-12-18T03:48:41.606Z,5.88
2023-12-18T03:51:11.940Z,5.86
2023-12-18T03:53:44.837Z,5.75
2023-12-18T03:56:15.004Z,5.51
2023-12-18T03:58:45.226Z,5.33
2023-12-18T04:01:15.382Z,5.25
2023-12-18T04:03:45.729Z,5.32
2023-12-18T04:06:13.373Z,5.36
2023-12-18T04:08:46.161Z,5.27
2023-12-18T04:11:20.386Z,5.06
2023-12-18T04:13:50.703Z,4.63
2023-12-18T04:16:20.904Z,4.54
2023-12-18T04:18:53.138Z,4.48
2023-12-18T04:21:23.524Z,4.37
2023-12-18T04:23:56.308Z,4.35
2023-12-18T04:26:26.510Z,4.41
2023-12-18T04:28:56.774Z,4.44
2023-12-18T04:31:27.225Z,5.50
2023-12-18T04:33:57.628Z,6.00
2023-12-18T04:36:27.946Z,6.40
2023-12-18T04:39:00.861Z,6.71
2023-12-18T04:41:31.097Z,6.97
2023-12-18T04:44:01.345Z,6.62
2023-12-18T04:46:31.544Z,6.40
2023-12-18T04:49:01.874Z,6.12
2023-12-18T04:51:32.128Z,6.09
2023-12-18T04:54:05.248Z,6.37
2023-12-18T04:56:35.441Z,7.25
2023-12-18T04:59:05.703Z,7.76
2023-12-18T05:01:36.176Z,7.90
2023-12-18T05:04:07.219Z,7.82
2023-12-18T05:06:37.914Z,7.84
2023-12-18T05:09:10.912Z,7.85
2023-12-18T05:11:41.314Z,7.93
2023-12-18T05:14:11.642Z,8.19
2023-12-18T05:16:41.853Z,8.01
2023-12-18T05:19:12.167Z,8.07
2023-12-18T05:21:42.450Z,8.15
2023-12-18T05:24:15.331Z,7.95
2023-12-18T05:26:45.812Z,7.72
2023-12-18T05:29:16.127Z,7.71
2023-12-18T05:31:46.393Z,7.79
2023-12-18T05:34:16.621Z,7.73
2023-12-18T05:36:46.967Z,7.68
2023-12-18T05:39:20.204Z,7.67
2023-12-18T05:41:50.421Z,7.70
2023-12-18T05:44:20.614Z,7.62
2023-12-18T05:46:50.839Z,7.78
2023-12-18T05:49:21.067Z,7.88
2023-12-18T05:51:51.421Z,7.86
2023-12-18T05:54:24.333Z,7.83
2023-12-18T05:56:54.662Z,7.72
2023-12-18T05:59:24.837Z,7.79
2023-12-18T06:01:55.152Z,7.86
2023-12-18T06:04:25.839Z,8.00
2023-12-18T06:06:56.100Z,8.08
2023-12-18T06:09:28.987Z,8.03
2023-12-18T06:11:59.193Z,8.10
2023-12-18T06:14:29.378Z,8.36
2023-12-18T06:16:59.608Z,8.36
2023-12-18T06:19:29.856Z,8.21
2023-12-18T06:22:00.121Z,8.02
2023-12-18T06:24:33.000Z,7.96
2023-12-18T06:27:03.230Z,7.95
2023-12-18T06:29:33.355Z,8.14
2023-12-18T06:32:03.799Z,8.13
2023-12-18T06:34:34.285Z,8.26
2023-12-18T06:37:04.596Z,8.38
2023-12-18T06:39:37.431Z,8.35
2023-12-18T06:42:08.552Z,8.42
2023-12-18T06:44:38.804Z,8.39
2023-12-18T06:47:09.055Z,8.44
2023-12-18T06:49:39.416Z,8.34
2023-12-18T06:52:09.836Z,8.12
2023-12-18T06:54:44.502Z,7.96
2023-12-18T06:57:15.194Z,7.87
2023-12-18T06:59:45.391Z,7.40
2023-12-18T07:02:15.600Z,6.76
2023-12-18T07:04:46.105Z,6.48
2023-12-18T07:07:16.413Z,6.49
2023-12-18T07:09:49.387Z,6.73
2023-12-18T07:12:19.714Z,6.87
2023-12-18T07:14:49.893Z,7.02
2023-12-18T07:17:20.158Z,7.31
2023-12-18T07:19:50.392Z,7.89
2023-12-18T07:22:20.684Z,7.95
2023-12-18T07:24:53.548Z,8.08
2023-12-18T07:27:23.831Z,8.31
2023-12-18T07:29:54.011Z,8.51
2023-12-18T07:32:24.924Z,8.56
2023-12-18T07:34:55.146Z,8.52
2023-12-18T07:37:25.373Z,8.55
2023-12-18T07:39:59.459Z,8.60
2023-12-18T07:42:30.069Z,8.65
2023-12-18T07:45:00.388Z,8.81
2023-12-18T07:47:30.574Z,8.89
2023-12-18T07:50:00.853Z,8.88
2023-12-18T07:52:31.069Z,9.02
2023-12-18T07:55:04.013Z,9.03
2023-12-18T07:57:35.169Z,9.07
2023-12-18T08:00:06.559Z,9.15
2023-12-18T08:02:42.017Z,9.19
2023-12-18T08:05:12.566Z,9.18
2023-12-18T08:07:42.801Z,9.19
2023-12-18T08:10:15.906Z,9.20
2023-12-18T08:12:46.803Z,9.34
2023-12-18T08:15:17.536Z,9.38
2023-12-18T08:17:47.893Z,9.37
2023-12-18T08:20:18.354Z,9.27
2023-12-18T08:22:48.564Z,9.28
2023-12-18T08:25:22.512Z,9.36
2023-12-18T08:27:52.818Z,9.36
2023-12-18T08:30:23.142Z,9.39
2023-12-18T08:32:53.567Z,9.38
2023-12-18T08:35:23.742Z,9.48
2023-12-18T08:37:54.003Z,9.52
2023-12-18T08:40:26.872Z,9.42
2023-12-18T08:42:57.886Z,9.30
2023-12-18T08:45:28.200Z,9.25
2023-12-18T08:48:00.852Z,9.50
2023-12-18T08:50:31.492Z,9.66
2023-12-18T08:53:01.738Z,9.84
2023-12-18T08:55:38.549Z,9.87
2023-12-18T08:58:08.798Z,9.70
2023-12-18T09:00:39.355Z,9.80
2023-12-18T09:03:09.743Z,9.44
2023-12-18T09:05:41.855Z,9.13
2023-12-18T09:08:15.131Z,9.15
2023-12-18T09:10:47.972Z,8.85
2023-12-18T09:13:18.180Z,8.78
2023-12-18T09:15:48.616Z,8.82
2023-12-18T09:18:19.049Z,9.05
2023-12-18T09:20:49.541Z,9.21
2023-12-18T09:23:19.714Z,9.36
2023-12-18T09:25:52.485Z,9.56
2023-12-18T09:28:22.765Z,9.66
2023-12-18T09:30:53.171Z,9.91
2023-12-18T09:33:23.813Z,10.08
2023-12-18T09:35:54.075Z,10.11
2023-12-18T09:38:24.533Z,10.18
2023-12-18T09:40:57.369Z,10.25
2023-12-18T09:43:28.202Z,10.23
2023-12-18T09:45:59.560Z,10.23
2023-12-18T09:48:30.013Z,10.24
2023-12-18T09:51:00.367Z,10.33
2023-12-18T09:53:30.843Z,10.32
2023-12-18T09:56:03.707Z,10.36
2023-12-18T09:58:34.049Z,10.45
2023-12-18T10:01:04.308Z,10.47
2023-12-18T10:03:34.695Z,10.37
2023-12-18T10:06:04.987Z,10.47
2023-12-18T10:08:35.214Z,10.47
2023-12-18T10:11:08.048Z,10.47
2023-12-18T10:13:40.481Z,10.67
2023-12-18T10:16:10.771Z,10.65
2023-12-18T10:18:41.120Z,10.62
2023-12-18T10:21:11.416Z,10.61
2023-12-18T10:23:42.520Z,10.73
2023-12-18T10:26:15.408Z,10.70
2023-12-18T10:28:45.735Z,10.74
2023-12-18T10:31:16.042Z,10.77
2023-12-18T10:33:47.003Z,10.78
2023-12-18T10:36:19.586Z,10.99
2023-12-18T10:38:53.004Z,10.89
2023-12-18T10:41:26.027Z,11.08
2023-12-18T10:43:56.863Z,10.96
2023-12-18T10:46:29.108Z,10.95
2023-12-18T10:49:00.318Z,11.05
2023-12-18T10:51:31.709Z,11.04
2023-12-18T10:54:01.975Z,11.05
2023-12-18T10:56:35.743Z,11.01
2023-12-18T10:59:07.270Z,11.04
2023-12-18T11:01:38.902Z,10.98
2023-12-18T11:04:09.769Z,10.98
2023-12-18T11:06:40.366Z,11.02
2023-12-18T11:09:10.664Z,11.00
2023-12-18T11:11:44.272Z,10.95
2023-12-18T11:14:18.129Z,10.95
2023-12-18T11:16:58.861Z,11.01
2023-12-18T11:19:41.825Z,11.07
2023-12-18T11:22:12.052Z,11.09
2023-12-18T11:24:42.625Z,11.04
2023-12-18T11:27:15.470Z,11.06
2023-12-18T11:29:47.079Z,11.17
2023-12-18T11:32:47.432Z,11.22
2023-12-18T11:35:18.798Z,11.14
2023-12-18T11:37:50.016Z,11.08
2023-12-18T11:40:54.132Z,11.06
2023-12-18T11:43:46.240Z,11.10
2023-12-18T11:46:19.033Z,11.20
2023-12-18T11:48:49.620Z,11.20
2023-12-18T11:51:21.814Z,11.22
2023-12-18T11:54:01.665Z,11.13
2023-12-18T11:56:32.148Z,11.02
2023-12-18T11:59:07.861Z,11.16
2023-12-18T12:01:38.222Z,11.12
2023-12-18T12:04:08.642Z,11.20
2023-12-18T12:06:41.542Z,11.15
2023-12-18T12:09:12.007Z,11.24
2023-12-18T12:11:42.274Z,11.22
2023-12-18T12:14:15.088Z,11.17
2023-12-18T12:16:45.324Z,11.22
2023-12-18T12:19:15.600Z,11.17
2023-12-18T12:21:48.195Z,11.12
2023-12-18T12:24:20.793Z,11.16
2023-12-18T12:26:51.998Z,11.20
2023-12-18T12:29:26.306Z,11.28
2023-12-18T12:32:03.632Z,11.24
2023-12-18T12:34:40.801Z,11.24
2023-12-18T12:37:12.410Z,11.18
2023-12-18T12:39:42.714Z,11.16
2023-12-18T12:42:14.876Z,11.22
2023-12-18T12:44:47.750Z,11.26
2023-12-18T12:47:18.159Z,11.24
2023-12-18T12:49:50.424Z,11.20
2023-12-18T12:52:20.983Z,11.13
2023-12-18T12:54:51.494Z,11.22
2023-12-18T12:57:22.178Z,11.18
2023-12-18T12:59:55.645Z,11.22
2023-12-18T13:02:27.220Z,11.18
2023-12-18T13:04:58.030Z,11.06
2023-12-18T13:07:28.332Z,10.99
2023-12-18T13:09:58.817Z,11.04
2023-12-18T13:12:29.077Z,11.03
2023-12-18T13:15:02.846Z,10.89
2023-12-18T13:17:33.148Z,10.84
2023-12-18T13:20:12.451Z,11.03
2023-12-18T13:22:49.284Z,10.90
2023-12-18T13:25:19.486Z,10.76
2023-12-18T13:27:49.766Z,10.74
2023-12-18T13:30:22.713Z,10.87
2023-12-18T13:32:53.142Z,10.95
2023-12-18T13:35:23.870Z,10.91
2023-12-18T13:37:54.227Z,10.83
2023-12-18T13:40:24.694Z,10.73
2023-12-18T13:42:54.974Z,10.94
2023-12-18T13:45:27.832Z,10.79
2023-12-18T13:47:59.374Z,10.80
2023-12-18T13:50:30.109Z,10.76
2023-12-18T13:53:00.353Z,10.75
2023-12-18T13:55:30.503Z,10.75
2023-12-18T13:58:00.850Z,10.75
2023-12-18T14:00:33.702Z,10.74
2023-12-18T14:03:05.064Z,10.54
2023-12-18T14:05:35.443Z,10.57
2023-12-18T14:08:05.969Z,10.53
2023-12-18T14:10:36.266Z,10.48
2023-12-18T14:13:07.006Z,10.53
2023-12-18T14:15:39.956Z,10.53
2023-12-18T14:18:10.385Z,10.46
2023-12-18T14:20:40.660Z,10.46
2023-12-18T14:23:10.855Z,10.39
2023-12-18T14:25:41.072Z,10.35
2023-12-18T14:28:11.434Z,10.26
2023-12-18T14:30:44.309Z,10.22
2023-12-18T14:33:14.835Z,10.13
2023-12-18T14:35:46.306Z,9.97
2023-12-18T14:38:18.944Z,10.04
2023-12-18T14:40:49.592Z,10.06
2023-12-18T14:43:19.761Z,10.12
2023-12-18T14:45:52.898Z,10.09
2023-12-18T14:48:29.630Z,10.34
2023-12-18T14:51:05.599Z,10.22
2023-12-18T14:53:35.740Z,10.14
2023-12-18T14:56:06.355Z,10.07
2023-12-18T14:58:36.632Z,10.04
2023-12-18T15:01:09.489Z,9.93
2023-12-18T15:03:40.017Z,9.87
2023-12-18T15:06:10.586Z,9.91
2023-12-18T15:08:40.789Z,10.08
2023-12-18T15:11:11.221Z,10.11
2023-12-18T15:13:41.499Z,10.28
2023-12-18T15:16:14.283Z,10.27
2023-12-18T15:18:44.694Z,10.03
2023-12-18T15:21:15.150Z,9.83
2023-12-18T15:23:45.372Z,9.89
2023-12-18T15:26:15.557Z,9.75
2023-12-18T15:28:45.722Z,9.80
2023-12-18T15:31:18.949Z,10.02
2023-12-18T15:33:49.220Z,10.04
2023-12-18T15:36:19.686Z,9.98
2023-12-18T15:38:50.916Z,9.82
2023-12-18T15:41:22.161Z,9.80
2023-12-18T15:43:52.483Z,9.71
2023-12-18T15:46:25.230Z,9.68
2023-12-18T15:48:55.770Z,9.69
2023-12-18T15:51:26.173Z,9.67
2023-12-18T15:53:56.449Z,9.39
2023-12-18T15:56:26.663Z,9.42
2023-12-18T15:58:56.951Z,9.34
2023-12-18T16:01:29.828Z,9.20
2023-12-18T16:04:00.140Z,9.25
2023-12-18T16:06:30.815Z,9.36
2023-12-18T16:09:00.963Z,9.29
2023-12-18T16:11:31.336Z,9.37
2023-12-18T16:14:01.733Z,9.32
2023-12-18T16:16:34.539Z,9.33
2023-12-18T16:19:04.921Z,9.30
2023-12-18T16:21:35.167Z,9.37
2023-12-18T16:24:05.412Z,9.67
2023-12-18T16:26:36.992Z,9.92
2023-12-18T16:29:08.992Z,9.89
2023-12-18T16:31:41.784Z,9.99
2023-12-18T16:34:12.467Z,9.99
2023-12-18T16:36:43.325Z,10.06
2023-12-18T16:39:13.616Z,10.01
2023-12-18T16:41:43.776Z,10.16
2023-12-18T16:44:14.021Z,10.25
2023-12-18T16:46:46.867Z,10.23
2023-12-18T16:49:17.133Z,10.32
2023-12-18T16:51:47.375Z,10.26
2023-12-18T16:54:17.744Z,10.03
2023-12-18T16:56:47.934Z,9.80
2023-12-18T16:59:18.120Z,9.60
2023-12-18T17:01:51.772Z,9.46
2023-12-18T17:04:22.276Z,9.47
2023-12-18T17:06:52.548Z,9.84
2023-12-18T17:09:22.837Z,9.85
2023-12-18T17:11:53.092Z,9.63
2023-12-18T17:14:23.371Z,9.52
2023-12-18T17:16:56.272Z,9.36
2023-12-18T17:19:26.621Z,9.40
2023-12-18T17:21:56.878Z,9.56
2023-12-18T17:24:27.281Z,9.51
2023-12-18T17:26:57.438Z,9.28
2023-12-18T17:29:27.607Z,9.23
2023-12-18T17:32:01.412Z,9.55
2023-12-18T17:34:31.704Z,9.46
2023-12-18T17:37:01.930Z,9.36
2023-12-18T17:39:32.260Z,9.40
2023-12-18T17:42:02.444Z,9.24
2023-12-18T17:44:32.722Z,9.12
2023-12-18T17:47:06.113Z,9.03
2023-12-18T17:49:38.449Z,9.03
2023-12-18T17:52:08.872Z,9.05
2023-12-18T17:54:39.118Z,9.12
2023-12-18T17:57:09.374Z,8.95
2023-12-18T17:59:39.510Z,9.18
2023-12-18T18:02:12.488Z,9.18
2023-12-18T18:04:42.726Z,9.29
2023-12-18T18:07:12.948Z,9.30
2023-12-18T18:09:43.362Z,8.84
2023-12-18T18:12:13.777Z,8.55
2023-12-18T18:14:44.084Z,8.02
2023-12-18T18:17:16.926Z,7.73
2023-12-18T18:19:47.293Z,7.62
2023-12-18T18:22:17.689Z,7.68
2023-12-18T18:24:48.030Z,7.40
2023-12-18T18:27:19.349Z,7.30
2023-12-18T18:29:51.326Z,7.37
2023-12-18T18:32:24.484Z,7.73
2023-12-18T18:34:54.814Z,8.30
2023-12-18T18:37:25.001Z,7.91
2023-12-18T18:39:57.688Z,7.69
2023-12-18T18:42:27.941Z,7.59
2023-12-18T18:44:58.288Z,7.57
2023-12-18T18:47:31.099Z,8.01
2023-12-18T18:50:01.406Z,7.90
2023-12-18T18:52:31.738Z,8.09
2023-12-18T18:55:01.997Z,8.24
2023-12-18T18:57:32.295Z,8.18
2023-12-18T19:00:02.707Z,8.27
2023-12-18T19:02:35.513Z,7.71
2023-12-18T19:05:06.957Z,7.21
2023-12-18T19:07:37.241Z,7.07
2023-12-18T19:10:08.194Z,6.98
2023-12-18T19:12:42.323Z,6.73
2023-12-18T19:15:12.833Z,6.82
2023-12-18T19:17:46.120Z,6.77
2023-12-18T19:20:16.590Z,7.26
2023-12-18T19:22:47.754Z,8.03
2023-12-18T19:25:19.487Z,8.11
2023-12-18T19:27:50.258Z,8.28
2023-12-18T19:30:20.759Z,8.67
2023-12-18T19:32:53.644Z,8.74
2023-12-18T19:35:23.988Z,9.04
2023-12-18T19:37:54.199Z,8.90
2023-12-18T19:40:24.410Z,8.93
2023-12-18T19:42:54.893Z,8.85
2023-12-18T19:45:25.166Z,8.38
2023-12-18T19:47:58.010Z,7.67
2023-12-18T19:50:28.355Z,7.61
2023-12-18T19:52:58.980Z,7.82
2023-12-18T19:55:29.270Z,7.61
2023-12-18T19:58:00.382Z,7.75
2023-12-18T20:00:31.566Z,7.83
2023-12-18T20:03:04.430Z,7.48
2023-12-18T20:05:34.680Z,7.49
2023-12-18T20:08:04.928Z,7.73
2023-12-18T20:10:35.170Z,7.93
2023-12-18T20:13:05.495Z,8.32
2023-12-18T20:15:36.078Z,8.26
2023-12-18T20:18:09.141Z,8.58
2023-12-18T20:20:39.381Z,8.79
2023-12-18T20:23:09.532Z,8.38
2023-12-18T20:25:39.729Z,8.04
2023-12-18T20:28:09.950Z,8.00
2023-12-18T20:30:40.225Z,7.68
2023-12-18T20:33:13.227Z,7.45
2023-12-18T20:35:44.041Z,7.37
2023-12-18T20:38:14.308Z,7.32
2023-12-18T20:40:46.528Z,7.21
2023-12-18T20:43:17.082Z,7.29
2023-12-18T20:45:59.257Z,6.98
2023-12-18T20:48:32.294Z,6.68
2023-12-18T20:51:02.620Z,6.49
2023-12-18T20:53:33.848Z,6.25
2023-12-18T20:56:04.296Z,6.50
2023-12-18T20:58:34.430Z,6.82
2023-12-18T21:01:06.382Z,7.50
2023-12-18T21:03:39.459Z,8.40
2023-12-18T21:06:12.865Z,8.30
2023-12-18T21:08:43.129Z,8.35
2023-12-18T21:11:13.350Z,8.44
2023-12-18T21:13:43.746Z,8.45
2023-12-18T21:16:15.811Z,8.33
2023-12-18T21:18:48.794Z,8.17
2023-12-18T21:21:21.232Z,8.13
2023-12-18T21:23:51.776Z,8.11
2023-12-18T21:26:22.019Z,8.12
2023-12-18T21:28:52.779Z,7.97
2023-12-18T21:31:22.989Z,7.67
2023-12-18T21:33:55.994Z,7.45
2023-12-18T21:36:26.277Z,7.66
2023-12-18T21:38:57.920Z,8.31
2023-12-18T21:41:28.805Z,8.38
2023-12-18T21:44:00.178Z,8.66
2023-12-18T21:46:30.424Z,8.78
2023-12-18T21:49:03.309Z,9.12
2023-12-18T21:51:38.159Z,9.29
2023-12-18T21:54:11.647Z,9.22
2023-12-18T21:56:41.875Z,9.26
2023-12-18T21:59:12.057Z,9.76
2023-12-18T22:01:42.285Z,9.89
2023-12-18T22:04:17.814Z,10.01
2023-12-18T22:06:48.232Z,10.14
2023-12-18T22:09:18.423Z,10.20
2023-12-18T22:11:48.782Z,10.47
2023-12-18T22:14:19.239Z,10.37
2023-12-18T22:16:49.544Z,10.37
2023-12-18T22:19:23.389Z,10.14
2023-12-18T22:21:53.659Z,10.48
2023-12-18T22:24:23.845Z,10.59
2023-12-18T22:26:54.276Z,10.48
2023-12-18T22:29:24.577Z,10.51
2023-12-18T22:31:59.162Z,10.64
2023-12-18T22:34:32.304Z,10.71
2023-12-18T22:37:02.561Z,10.74
2023-12-18T22:39:32.909Z,10.84
2023-12-18T22:42:03.133Z,10.95
2023-12-18T22:44:33.296Z,10.99
2023-12-18T22:47:04.306Z,11.06
2023-12-18T22:49:37.266Z,11.14
2023-12-18T22:52:08.978Z,10.90
2023-12-18T22:54:39.733Z,10.75
2023-12-18T22:57:09.910Z,10.68
2023-12-18T22:59:40.126Z,10.88
2023-12-18T23:02:11.125Z,10.99
2023-12-18T23:04:44.199Z,11.14
2023-12-18T23:07:14.589Z,11.13
2023-12-18T23:09:45.964Z,11.13
2023-12-18T23:12:19.245Z,10.97
2023-12-18T23:14:49.646Z,11.09
2023-12-18T23:17:19.896Z,10.89
2023-12-18T23:19:52.929Z,10.77
2023-12-18T23:22:23.338Z,10.68
2023-12-18T23:24:53.525Z,10.64
2023-12-18T23:27:23.785Z,10.38
2023-12-18T23:29:53.943Z,10.31
2023-12-18T23:32:24.328Z,10.37
2023-12-18T23:34:57.573Z,10.42
2023-12-18T23:37:27.848Z,10.31
2023-12-18T23:39:58.190Z,10.32
2023-12-18T23:42:28.550Z,10.23
2023-12-18T23:44:59.160Z,10.18
2023-12-18T23:47:29.481Z,10.07
2023-12-18T23:50:02.463Z,9.91
2023-12-18T23:52:32.672Z,9.76
2023-12-18T23:55:02.924Z,9.66
2023-12-18T23:57:33.221Z,9.65
